createdAt,value
2023-02-03T00:01:16.954Z,70.90
2023-02-03T00:04:02.247Z,70.80
2023-02-03T00:06:53.456Z,71.10
2023-02-03T00:09:38.720Z,71.20
2023-02-03T00:12:26.937Z,71.00
2023-02-03T00:15:12.226Z,71.10
2023-02-03T00:17:57.638Z,71.10
2023-02-03T00:20:42.937Z,70.80
2023-02-03T00:23:32.116Z,70.90
2023-02-03T00:26:18.560Z,70.80
2023-02-03T00:29:04.086Z,71.10
2023-02-03T00:31:53.621Z,71.40
2023-02-03T00:34:39.357Z,71.60
2023-02-03T00:37:26.950Z,72.40
2023-02-03T00:40:13.109Z,73.00
2023-02-03T00:43:03.388Z,75.10
2023-02-03T00:45:51.360Z,76.70
2023-02-03T00:48:36.907Z,77.80
2023-02-03T00:51:23.010Z,79.00
2023-02-03T00:54:08.343Z,80.00
2023-02-03T00:56:53.900Z,81.00
2023-02-03T00:59:40.412Z,82.60
2023-02-03T01:02:25.898Z,82.70
2023-02-03T01:05:12.006Z,84.30
2023-02-03T01:08:00.573Z,86.20
2023-02-03T01:10:48.379Z,87.60
2023-02-03T01:13:33.674Z,88.70
2023-02-03T01:16:22.618Z,90.00
2023-02-03T01:19:10.660Z,90.70
2023-02-03T01:21:56.219Z,91.00
2023-02-03T01:24:43.871Z,91.30
2023-02-03T01:27:29.122Z,94.00
2023-02-03T01:30:14.795Z,95.70
2023-02-03T01:33:00.371Z,96.50
2023-02-03T01:35:48.797Z,96.20
2023-02-03T01:38:36.323Z,97.30
2023-02-03T01:41:24.670Z,97.10
2023-02-03T01:44:41.263Z,97.90
2023-02-03T01:47:38.329Z,97.40
2023-02-03T01:50:36.896Z,98.10
2023-02-03T01:53:24.899Z,97.50
2023-02-03T01:56:12.672Z,97.30
2023-02-03T01:59:00.299Z,97.90
2023-02-03T02:01:47.064Z,98.50
2023-02-03T02:04:45.825Z,98.70
2023-02-03T02:07:33.546Z,98.90
2023-02-03T02:10:19.110Z,98.60
2023-02-03T02:13:08.967Z,98.60
2023-02-03T02:16:16.878Z,98.70
2023-02-03T02:19:20.832Z,97.80
2023-02-03T02:22:14.894Z,98.50
2023-02-03T02:25:23.876Z,98.70
2023-02-03T02:28:27.409Z,99.70
2023-02-03T02:31:42.070Z,99.80
2023-02-03T02:35:03.615Z,99.90
2023-02-03T02:38:24.843Z,99.90
2023-02-03T02:41:23.061Z,99.50
2023-02-03T02:44:11.659Z,99.90
2023-02-03T02:47:12.950Z,99.90
2023-02-03T02:50:25.797Z,99.90
2023-02-03T02:53:13.326Z,99.90
2023-02-03T02:56:03.359Z,99.90
2023-02-03T02:58:53.387Z,99.90
2023-02-03T03:01:41.293Z,99.90
2023-02-03T03:04:33.463Z,99.90
2023-02-03T03:07:23.396Z,99.90
2023-02-03T03:10:13.637Z,99.90
2023-02-03T03:13:09.853Z,99.90
2023-02-03T03:15:59.509Z,99.90
2023-02-03T03:18:49.112Z,99.90
2023-02-03T03:21:54.354Z,99.90
2023-02-03T03:24:50.634Z,99.90
2023-02-03T03:27:43.895Z,99.90
2023-02-03T03:30:39.197Z,99.90
2023-02-03T03:33:27.233Z,99.90
2023-02-03T03:36:22.451Z,99.90
2023-02-03T03:39:39.338Z,99.90
2023-02-03T03:42:46.173Z,99.90
2023-02-03T03:45:58.030Z,99.90
2023-02-03T03:48:55.404Z,99.90
2023-02-03T03:51:44.913Z,99.90
2023-02-03T03:54:31.691Z,99.90
2023-02-03T03:57:36.457Z,99.90
2023-02-03T04:00:23.287Z,99.90
2023-02-03T04:03:16.090Z,99.90
2023-02-03T04:06:02.122Z,99.90
2023-02-03T04:08:47.467Z,99.90
2023-02-03T04:11:51.272Z,99.90
2023-02-03T04:14:40.870Z,99.90
2023-02-03T04:17:27.012Z,99.90
2023-02-03T04:20:13.040Z,99.90
2023-02-03T04:22:59.251Z,99.90
2023-02-03T04:25:44.777Z,99.90
2023-02-03T04:28:30.386Z,99.90
2023-02-03T04:31:17.246Z,99.90
2023-02-03T04:34:04.695Z,99.90
2023-02-03T04:36:50.097Z,99.90
2023-02-03T04:39:35.521Z,99.90
2023-02-03T04:42:23.335Z,99.90
2023-02-03T04:45:11.629Z,99.90
2023-02-03T04:47:56.880Z,99.90
2023-02-03T04:50:42.163Z,99.90
2023-02-03T04:53:29.719Z,99.90
2023-02-03T04:56:16.379Z,99.90
2023-02-03T04:59:02.458Z,99.90
2023-02-03T05:01:49.750Z,99.90
2023-02-03T05:04:35.073Z,99.90
2023-02-03T05:07:20.862Z,99.90
2023-02-03T05:10:06.889Z,99.90
2023-02-03T05:12:52.684Z,99.90
2023-02-03T05:15:40.335Z,99.90
2023-02-03T05:18:28.216Z,99.90
2023-02-03T05:21:14.088Z,99.90
2023-02-03T05:24:03.720Z,99.90
2023-02-03T05:26:49.263Z,99.90
2023-02-03T05:29:34.773Z,99.90
2023-02-03T05:32:24.895Z,99.90
2023-02-03T05:35:10.179Z,99.90
2023-02-03T05:37:59.422Z,99.90
2023-02-03T05:41:06.307Z,99.90
2023-02-03T05:43:54.976Z,99.90
2023-02-03T05:46:40.166Z,99.90
2023-02-03T05:49:26.322Z,99.90
2023-02-03T05:52:11.565Z,99.90
2023-02-03T05:54:59.519Z,99.90
2023-02-03T05:57:44.773Z,99.90
2023-02-03T06:00:30.904Z,99.90
2023-02-03T06:03:16.384Z,99.90
2023-02-03T06:06:04.916Z,99.90
2023-02-03T06:08:56.142Z,99.90
2023-02-03T06:11:44.247Z,99.90
2023-02-03T06:14:29.465Z,99.90
2023-02-03T06:17:17.154Z,99.90
2023-02-03T06:20:07.279Z,99.90
2023-02-03T06:22:52.599Z,99.90
2023-02-03T06:25:38.041Z,99.90
2023-02-03T06:28:23.531Z,99.90
2023-02-03T06:31:09.680Z,99.90
2023-02-03T06:33:57.210Z,99.90
2023-02-03T06:36:42.436Z,99.90
2023-02-03T06:39:27.981Z,99.90
2023-02-03T06:42:13.452Z,99.90
2023-02-03T06:44:59.180Z,99.90
2023-02-03T06:47:46.531Z,99.90
2023-02-03T06:50:31.987Z,99.90
2023-02-03T06:53:17.085Z,99.90
2023-02-03T06:56:03.434Z,99.90
2023-02-03T06:58:48.764Z,99.90
2023-02-03T07:01:34.032Z,99.90
2023-02-03T07:04:19.860Z,99.90
2023-02-03T07:07:05.951Z,99.90
2023-02-03T07:09:51.374Z,99.90
2023-02-03T07:12:39.147Z,99.90
2023-02-03T07:15:24.804Z,99.90
2023-02-03T07:18:10.820Z,99.90
2023-02-03T07:20:59.930Z,99.90
2023-02-03T07:23:49.154Z,99.90
2023-02-03T07:26:34.942Z,99.90
2023-02-03T07:29:23.145Z,99.90
2023-02-03T07:32:08.682Z,99.90
2023-02-03T07:34:54.299Z,99.90
2023-02-03T07:37:39.803Z,99.90
2023-02-03T07:40:26.166Z,99.90
2023-02-03T07:43:11.964Z,99.90
2023-02-03T07:45:57.407Z,99.90
2023-02-03T07:48:43.015Z,99.90
2023-02-03T07:51:28.344Z,99.90
2023-02-03T07:54:15.357Z,99.90
2023-02-03T07:57:03.647Z,99.90
2023-02-03T07:59:48.792Z,99.90
2023-02-03T08:02:34.352Z,99.90
2023-02-03T08:05:19.944Z,99.90
2023-02-03T08:08:05.580Z,99.90
2023-02-03T08:10:58.530Z,99.90
2023-02-03T08:13:44.364Z,99.90
2023-02-03T08:16:32.021Z,99.90
2023-02-03T08:19:17.832Z,99.90
2023-02-03T08:22:03.254Z,99.90
2023-02-03T08:24:49.339Z,99.90
2023-02-03T08:27:34.800Z,99.90
2023-02-03T08:30:19.995Z,99.90
2023-02-03T08:33:05.290Z,99.90
2023-02-03T08:35:51.108Z,99.90
2023-02-03T08:38:39.663Z,99.90
2023-02-03T08:41:30.105Z,99.90
2023-02-03T08:44:15.416Z,99.90
2023-02-03T08:47:03.957Z,99.90
2023-02-03T08:49:49.275Z,99.90
2023-02-03T08:52:35.863Z,99.90
2023-02-03T08:55:24.625Z,99.90
2023-02-03T08:58:10.117Z,99.90
2023-02-03T09:00:55.674Z,99.90
2023-02-03T09:03:43.841Z,99.90
2023-02-03T09:06:31.730Z,99.90
2023-02-03T09:09:21.302Z,99.90
2023-02-03T09:12:11.643Z,99.90
2023-02-03T09:14:57.789Z,99.90
2023-02-03T09:17:45.972Z,99.90
2023-02-03T09:20:31.845Z,99.90
2023-02-03T09:23:19.935Z,99.90
2023-02-03T09:26:10.272Z,99.90
2023-02-03T09:28:55.558Z,99.90
2023-02-03T09:31:41.369Z,99.90
2023-02-03T09:34:29.044Z,99.90
2023-02-03T09:37:14.713Z,99.90
2023-02-03T09:40:02.540Z,99.90
2023-02-03T09:42:53.217Z,99.90
2023-02-03T09:45:38.627Z,99.90
2023-02-03T09:48:31.425Z,99.90
2023-02-03T09:51:22.560Z,99.90
2023-02-03T09:54:21.835Z,99.90
2023-02-03T09:57:15.757Z,99.90
2023-02-03T10:00:10.475Z,99.90
2023-02-03T10:03:23.853Z,99.90
2023-02-03T10:06:24.436Z,99.90
2023-02-03T10:09:44.840Z,99.90
2023-02-03T10:13:18.868Z,99.90
2023-02-03T10:16:11.988Z,99.90
2023-02-03T10:19:04.179Z,99.90
2023-02-03T10:21:58.639Z,99.90
2023-02-03T10:24:53.935Z,99.90
2023-02-03T10:27:39.252Z,99.90
2023-02-03T10:30:34.508Z,99.90
2023-02-03T10:33:21.063Z,99.90
2023-02-03T10:36:09.663Z,99.90
2023-02-03T10:39:25.029Z,99.90
2023-02-03T10:42:12.845Z,99.90
2023-02-03T10:44:59.797Z,99.90
2023-02-03T10:47:56.228Z,99.90
2023-02-03T10:50:48.867Z,99.90
2023-02-03T10:53:36.423Z,99.90
2023-02-03T10:56:26.834Z,99.90
2023-02-03T10:59:30.094Z,99.90
2023-02-03T11:02:42.110Z,99.90
2023-02-03T11:05:28.504Z,99.90
2023-02-03T11:08:20.112Z,99.90
2023-02-03T11:11:08.897Z,99.90
2023-02-03T11:14:17.561Z,99.90
2023-02-03T11:17:08.288Z,99.90
2023-02-03T11:19:58.245Z,99.90
2023-02-03T11:22:44.775Z,99.90
2023-02-03T11:25:33.531Z,99.90
2023-02-03T11:28:19.328Z,99.90
2023-02-03T11:31:05.420Z,99.90
2023-02-03T11:34:01.350Z,99.90
2023-02-03T11:36:46.666Z,99.90
2023-02-03T11:39:35.843Z,99.90
2023-02-03T11:42:23.608Z,99.90
2023-02-03T11:45:18.887Z,99.90
2023-02-03T11:48:36.999Z,99.90
2023-02-03T11:51:41.931Z,99.90
2023-02-03T11:54:39.493Z,99.90
2023-02-03T11:58:00.162Z,99.90
2023-02-03T12:01:10.496Z,99.90
2023-02-03T12:04:24.260Z,99.90
2023-02-03T12:07:18.830Z,99.90
2023-02-03T12:10:30.654Z,99.90
2023-02-03T12:13:27.602Z,99.90
2023-02-03T12:16:31.824Z,99.90
2023-02-03T12:19:59.171Z,99.90
2023-02-03T12:23:13.958Z,99.90
2023-02-03T12:26:25.845Z,99.90
2023-02-03T12:29:20.638Z,99.90
2023-02-03T12:32:21.336Z,99.90
2023-02-03T12:35:25.405Z,99.90
2023-02-03T12:38:27.508Z,99.90
2023-02-03T12:41:17.565Z,99.90
2023-02-03T12:44:13.861Z,99.90
2023-02-03T12:47:26.570Z,99.90
2023-02-03T12:50:34.612Z,99.90
2023-02-03T12:53:26.850Z,99.90
2023-02-03T12:56:17.124Z,99.90
2023-02-03T12:59:07.265Z,99.90
2023-02-03T13:01:58.761Z,99.90
2023-02-03T13:04:55.328Z,99.90
2023-02-03T13:08:23.011Z,99.90
2023-02-03T13:11:37.186Z,99.90
2023-02-03T13:14:27.063Z,99.90
2023-02-03T13:17:20.742Z,99.90
2023-02-03T13:20:20.027Z,99.90
2023-02-03T13:23:10.489Z,99.90
2023-02-03T13:26:21.576Z,99.90
2023-02-03T13:29:29.062Z,99.90
2023-02-03T13:32:26.886Z,99.90
2023-02-03T13:35:55.638Z,99.90
2023-02-03T13:39:11.766Z,99.90
2023-02-03T13:42:26.450Z,99.90
2023-02-03T13:45:25.430Z,99.90
2023-02-03T13:48:33.634Z,99.90
2023-02-03T13:51:34.790Z,99.90
2023-02-03T13:54:32.381Z,99.90
2023-02-03T13:57:31.449Z,99.90
2023-02-03T14:00:46.198Z,99.90
2023-02-03T14:03:31.523Z,99.90
2023-02-03T14:06:38.513Z,99.90
2023-02-03T14:09:34.425Z,99.90
2023-02-03T14:12:33.285Z,99.90
2023-02-03T14:15:21.248Z,99.90
2023-02-03T14:18:21.623Z,99.90
2023-02-03T14:21:14.772Z,99.90
2023-02-03T14:24:09.168Z,99.90
2023-02-03T14:27:00.104Z,99.90
2023-02-03T14:29:45.918Z,99.90
2023-02-03T14:33:04.011Z,99.90
2023-02-03T14:35:49.710Z,99.90
2023-02-03T14:38:35.918Z,99.90
2023-02-03T14:41:34.388Z,99.90
2023-02-03T14:44:34.629Z,99.90
2023-02-03T14:47:35.223Z,99.90
2023-02-03T14:50:42.484Z,99.90
2023-02-03T14:54:12.742Z,99.90
2023-02-03T14:57:23.397Z,99.90
2023-02-03T15:00:24.079Z,99.90
2023-02-03T15:03:11.999Z,99.90
2023-02-03T15:06:01.605Z,99.90
2023-02-03T15:08:48.322Z,99.90
2023-02-03T15:11:43.769Z,99.90
2023-02-03T15:14:33.268Z,99.90
2023-02-03T15:17:24.061Z,99.90
2023-02-03T15:20:35.072Z,99.90
2023-02-03T15:23:23.358Z,99.90
2023-02-03T15:26:27.460Z,99.90
2023-02-03T15:29:31.201Z,99.90
2023-02-03T15:33:01.251Z,99.90
2023-02-03T15:35:55.118Z,99.90
2023-02-03T15:38:46.311Z,99.90
2023-02-03T15:41:32.108Z,99.90
2023-02-03T15:44:30.795Z,99.90
2023-02-03T15:47:28.299Z,99.90
2023-02-03T15:50:27.700Z,99.90
2023-02-03T15:53:45.301Z,99.90
2023-02-03T15:56:56.943Z,99.90
2023-02-03T15:59:49.077Z,99.90
2023-02-03T16:02:46.154Z,99.90
2023-02-03T16:05:34.274Z,99.90
2023-02-03T16:08:36.770Z,99.90
2023-02-03T16:11:23.468Z,99.90
2023-02-03T16:14:33.353Z,99.90
2023-02-03T16:17:21.183Z,99.90
2023-02-03T16:20:13.087Z,99.90
2023-02-03T16:23:24.055Z,99.90
2023-02-03T16:26:22.382Z,99.90
2023-02-03T16:29:26.373Z,99.90
2023-02-03T16:32:38.062Z,99.90
2023-02-03T16:35:43.295Z,99.90
2023-02-03T16:38:47.131Z,99.90
2023-02-03T16:41:51.615Z,99.90
2023-02-03T16:44:55.342Z,99.60
2023-02-03T16:47:59.745Z,94.20
2023-02-03T16:50:59.341Z,89.70
2023-02-03T16:53:48.278Z,91.20
2023-02-03T16:56:33.777Z,85.80
2023-02-03T16:59:19.594Z,83.70
2023-02-03T17:02:05.449Z,83.80
2023-02-03T17:04:51.274Z,83.70
2023-02-03T17:07:37.096Z,82.40
2023-02-03T17:10:24.909Z,80.80
2023-02-03T17:13:10.641Z,80.30
2023-02-03T17:15:57.259Z,79.20
2023-02-03T17:18:43.513Z,78.00
2023-02-03T17:21:30.787Z,77.20
2023-02-03T17:24:19.592Z,76.00
2023-02-03T17:27:05.248Z,74.10
2023-02-03T17:29:50.977Z,74.20
2023-02-03T17:32:38.507Z,73.70
2023-02-03T17:35:23.790Z,72.90
2023-02-03T17:38:12.362Z,71.20
2023-02-03T17:53:21.290Z,69.00
2023-02-03T17:56:14.261Z,68.70
2023-02-03T17:59:01.532Z,68.60
2023-02-03T18:01:52.161Z,68.90
2023-02-03T18:04:37.985Z,69.00
2023-02-03T18:07:23.592Z,69.30
2023-02-03T18:10:09.241Z,69.70
2023-02-03T18:12:54.880Z,69.70
2023-02-03T18:15:40.462Z,69.70
2023-02-03T18:18:31.394Z,69.80
2023-02-03T18:21:16.841Z,69.60
2023-02-03T18:24:05.855Z,69.70
2023-02-03T18:26:52.082Z,69.30
2023-02-03T18:29:40.995Z,69.50
2023-02-03T18:32:31.822Z,69.70
2023-02-03T18:35:18.755Z,69.30
2023-02-03T18:38:04.029Z,69.30
2023-02-03T18:40:54.839Z,68.90
2023-02-03T18:43:40.657Z,69.10
2023-02-03T18:46:32.152Z,68.80
2023-02-03T18:49:18.039Z,68.60
2023-02-03T18:52:05.266Z,68.80
2023-02-03T18:54:52.138Z,68.70
2023-02-03T18:57:37.756Z,68.60
2023-02-03T19:00:24.039Z,68.70
2023-02-03T19:03:09.872Z,68.70
2023-02-03T19:05:55.601Z,69.00
2023-02-03T19:08:43.484Z,68.60
2023-02-03T19:11:29.191Z,68.70
2023-02-03T19:14:16.303Z,68.90
2023-02-03T19:17:03.181Z,68.70
2023-02-03T19:19:48.391Z,68.60
2023-02-03T19:22:33.918Z,68.80
2023-02-03T19:25:19.333Z,68.50
2023-02-03T19:28:04.664Z,68.50
2023-02-03T19:30:53.300Z,68.90
2023-02-03T19:33:43.331Z,70.00
2023-02-03T19:36:30.557Z,70.80
2023-02-03T19:39:16.263Z,72.10
2023-02-03T19:42:02.199Z,72.20
2023-02-03T19:44:52.673Z,72.60
2023-02-03T19:47:38.480Z,72.90
2023-02-03T19:50:26.879Z,73.10
2023-02-03T19:53:18.962Z,73.00
2023-02-03T19:56:06.992Z,73.60
2023-02-03T19:58:53.736Z,73.90
2023-02-03T20:01:39.764Z,74.10
2023-02-03T20:04:25.099Z,74.40
2023-02-03T20:07:11.964Z,74.60
2023-02-03T20:09:57.544Z,74.40
2023-02-03T20:12:43.025Z,74.80
2023-02-03T20:15:28.305Z,75.50
2023-02-03T20:18:15.744Z,75.80
2023-02-03T20:21:03.429Z,76.00
2023-02-03T20:23:48.708Z,76.80
2023-02-03T20:26:34.862Z,77.40
2023-02-03T20:29:20.690Z,78.10
2023-02-03T20:32:09.964Z,79.60
2023-02-03T20:34:56.113Z,80.70
2023-02-03T20:37:42.315Z,83.00
2023-02-03T20:40:29.721Z,84.80
2023-02-03T20:43:23.016Z,87.20
2023-02-03T20:46:16.447Z,88.10
2023-02-03T20:49:02.185Z,89.50
2023-02-03T20:51:48.484Z,92.20
2023-02-03T20:54:37.171Z,93.20
2023-02-03T20:57:25.588Z,93.40
2023-02-03T21:00:18.716Z,93.60
2023-02-03T21:03:22.841Z,99.90
2023-02-03T21:06:19.258Z,99.90
2023-02-03T21:09:12.978Z,99.90
2023-02-03T21:11:58.582Z,99.90
2023-02-03T21:14:48.946Z,99.90
2023-02-03T21:17:35.930Z,99.90
2023-02-03T21:20:32.741Z,99.90
2023-02-03T21:23:19.289Z,99.90
2023-02-03T21:26:22.797Z,99.90
2023-02-03T21:29:24.030Z,99.90
2023-02-03T21:32:16.358Z,99.90
2023-02-03T21:35:02.240Z,98.30
2023-02-03T21:37:47.533Z,96.60
2023-02-03T21:40:34.787Z,96.20
2023-02-03T21:43:23.764Z,91.40
2023-02-03T21:46:27.019Z,90.10
2023-02-03T21:49:16.194Z,85.30
2023-02-03T21:52:06.882Z,83.30
2023-02-03T21:54:54.856Z,83.70
2023-02-03T21:57:40.134Z,81.90
2023-02-03T22:00:58.878Z,79.00
2023-02-03T22:03:51.405Z,78.60
2023-02-03T22:06:40.965Z,77.90
2023-02-03T22:09:27.659Z,77.70
2023-02-03T22:12:15.463Z,77.40
2023-02-03T22:15:00.739Z,78.20
2023-02-03T22:17:48.541Z,79.10
2023-02-03T22:20:36.307Z,80.10
2023-02-03T22:23:24.194Z,84.00
2023-02-03T22:26:11.441Z,85.30
2023-02-03T22:28:56.784Z,85.30
2023-02-03T22:31:43.177Z,84.30
2023-02-03T22:34:29.122Z,83.50
2023-02-03T22:37:17.380Z,82.30
2023-02-03T22:40:04.362Z,81.00
2023-02-03T22:42:52.919Z,80.10
2023-02-03T22:45:39.475Z,78.40
2023-02-03T22:48:25.625Z,79.00
2023-02-03T22:51:11.943Z,77.60
2023-02-03T22:53:57.846Z,77.10
2023-02-03T22:56:43.237Z,76.10
2023-02-03T22:59:28.949Z,75.40
2023-02-03T23:02:14.875Z,74.60
2023-02-03T23:05:00.563Z,73.70
2023-02-03T23:07:46.864Z,73.90
2023-02-03T23:10:33.019Z,73.30
2023-02-03T23:13:18.781Z,73.30
2023-02-03T23:16:07.358Z,74.00
2023-02-03T23:18:52.706Z,73.70
2023-02-03T23:21:43.584Z,73.80
2023-02-03T23:24:28.992Z,75.70
2023-02-03T23:27:14.471Z,75.80
2023-02-03T23:30:00.098Z,76.00
2023-02-03T23:32:45.341Z,77.00
2023-02-03T23:35:45.433Z,76.30
2023-02-03T23:38:33.604Z,76.30
2023-02-03T23:41:18.992Z,74.10
2023-02-03T23:44:04.658Z,72.30
2023-02-03T23:46:50.488Z,71.80
2023-02-03T23:49:36.401Z,70.40
2023-02-03T23:52:22.202Z,71.00
2023-02-03T23:55:12.835Z,73.80
2023-02-03T23:57:58.250Z,75.80
